createdAt,value
2018-04-13T00:01:01.346Z,14.20
2018-04-13T00:03:31.245Z,14.10
2018-04-13T00:05:59.701Z,14.10
2018-04-13T00:08:28.080Z,14.10
2018-04-13T00:10:56.476Z,14.00
2018-04-13T00:13:24.858Z,13.90
2018-04-13T00:15:53.361Z,13.80
2018-04-13T00:18:21.725Z,13.80
2018-04-13T00:20:50.934Z,13.70
2018-04-13T00:23:19.363Z,13.60
2018-04-13T00:25:47.784Z,13.60
2018-04-13T00:28:16.157Z,13.60
2018-04-13T00:30:44.578Z,13.50
2018-04-13T00:33:13.022Z,13.40
2018-04-13T00:35:41.783Z,13.30
2018-04-13T00:38:10.242Z,13.30
2018-04-13T00:40:38.909Z,13.20
2018-04-13T00:43:07.490Z,13.20
2018-04-13T00:45:41.729Z,13.00
2018-04-13T00:48:10.391Z,13.10
2018-04-13T00:50:38.769Z,13.00
2018-04-13T00:53:19.233Z,12.90
2018-04-13T00:55:48.449Z,12.80
2018-04-13T00:58:16.864Z,12.80
2018-04-13T01:00:45.348Z,12.80
2018-04-13T01:03:13.730Z,12.70
2018-04-13T01:05:42.092Z,12.60
2018-04-13T01:08:10.655Z,12.50
2018-04-13T01:10:39.047Z,12.50
2018-04-13T01:13:07.482Z,12.40
2018-04-13T01:15:36.657Z,12.30
2018-04-13T01:18:05.063Z,12.30
2018-04-13T01:20:34.769Z,12.20
2018-04-13T01:23:04.069Z,12.10
2018-04-13T01:25:32.495Z,12.10
2018-04-13T01:28:00.956Z,12.00
2018-04-13T01:30:29.429Z,12.00
2018-04-13T01:32:57.816Z,11.90
2018-04-13T01:35:26.210Z,11.90
2018-04-13T01:37:55.034Z,11.90
2018-04-13T01:40:24.218Z,11.90
2018-04-13T01:42:52.843Z,11.90
2018-04-13T01:45:21.290Z,11.90
2018-04-13T01:47:49.800Z,11.90
2018-04-13T01:50:18.428Z,11.80
2018-04-13T01:52:46.883Z,11.80
2018-04-13T01:55:15.274Z,11.80
2018-04-13T01:57:43.827Z,11.80
2018-04-13T02:00:12.408Z,11.90
2018-04-13T02:02:41.730Z,11.90
2018-04-13T02:05:10.113Z,11.90
2018-04-13T02:07:38.524Z,12.00
2018-04-13T02:10:07.061Z,12.00
2018-04-13T02:12:35.470Z,12.00
2018-04-13T02:15:04.117Z,12.00
2018-04-13T02:17:32.719Z,12.00
2018-04-13T02:20:01.289Z,12.00
2018-04-13T02:22:29.961Z,12.00
2018-04-13T02:24:59.267Z,12.00
2018-04-13T02:27:27.718Z,12.00
2018-04-13T02:29:56.329Z,12.00
2018-04-13T02:32:24.742Z,12.00
2018-04-13T02:34:53.220Z,12.00
2018-04-13T02:37:21.650Z,12.00
2018-04-13T02:39:50.146Z,12.00
2018-04-13T02:42:19.378Z,12.00
2018-04-13T02:44:47.927Z,11.90
2018-04-13T02:47:17.121Z,11.90
2018-04-13T02:49:46.294Z,11.90
2018-04-13T02:52:15.620Z,11.90
2018-04-13T02:54:44.206Z,11.90
2018-04-13T02:57:12.793Z,11.90
2018-04-13T02:59:41.373Z,11.90
2018-04-13T03:02:09.758Z,11.80
2018-04-13T03:04:38.330Z,11.80
2018-04-13T03:07:07.734Z,11.80
2018-04-13T03:09:36.155Z,11.70
2018-04-13T03:12:04.521Z,11.70
2018-04-13T03:14:33.077Z,11.70
2018-04-13T03:17:01.657Z,11.70
2018-04-13T03:19:31.280Z,11.70
2018-04-13T03:21:59.850Z,11.60
2018-04-13T03:24:28.434Z,11.60
2018-04-13T03:26:56.872Z,11.70
2018-04-13T03:29:25.393Z,11.70
2018-04-13T03:31:53.975Z,11.60
2018-04-13T03:34:22.362Z,11.60
2018-04-13T03:36:50.938Z,11.60
2018-04-13T03:39:19.437Z,11.60
2018-04-13T03:41:48.002Z,11.60
2018-04-13T03:44:16.514Z,11.60
2018-04-13T03:46:44.926Z,11.70
2018-04-13T03:49:13.343Z,11.70
2018-04-13T03:51:42.513Z,11.70
2018-04-13T03:54:11.752Z,11.70
2018-04-13T03:56:40.231Z,11.70
2018-04-13T03:59:08.804Z,11.70
2018-04-13T04:01:37.382Z,11.70
2018-04-13T04:04:05.962Z,11.70
2018-04-13T04:06:35.263Z,11.70
2018-04-13T04:09:04.950Z,11.80
2018-04-13T04:11:33.557Z,11.70
2018-04-13T04:14:02.734Z,11.80
2018-04-13T04:16:32.015Z,11.80
2018-04-13T04:19:01.454Z,11.80
2018-04-13T04:21:42.533Z,11.80
2018-04-13T04:24:22.770Z,11.80
2018-04-13T04:26:51.381Z,11.80
2018-04-13T04:29:20.061Z,11.70
2018-04-13T04:31:48.645Z,11.70
2018-04-13T04:34:17.229Z,11.60
2018-04-13T04:36:46.177Z,11.50
2018-04-13T04:39:14.600Z,11.50
2018-04-13T04:41:43.114Z,11.50
2018-04-13T04:44:11.761Z,11.40
2018-04-13T04:46:40.910Z,11.40
2018-04-13T04:49:09.462Z,11.40
2018-04-13T04:51:37.943Z,11.40
2018-04-13T04:54:06.504Z,11.40
2018-04-13T04:56:35.091Z,11.40
2018-04-13T04:59:03.487Z,11.40
2018-04-13T05:01:31.942Z,11.40
2018-04-13T05:04:01.171Z,11.40
2018-04-13T05:06:29.732Z,11.40
2018-04-13T05:08:58.178Z,11.40
2018-04-13T05:11:26.798Z,11.40
2018-04-13T05:13:55.374Z,11.40
2018-04-13T05:16:24.680Z,11.40
2018-04-13T05:18:53.367Z,11.40
2018-04-13T05:21:21.759Z,11.40
2018-04-13T05:23:50.325Z,11.50
2018-04-13T05:26:19.035Z,11.50
2018-04-13T05:28:47.483Z,11.50
2018-04-13T05:31:16.792Z,11.60
2018-04-13T05:33:45.372Z,11.60
2018-04-13T05:36:14.675Z,11.70
2018-04-13T05:38:43.256Z,11.70
2018-04-13T05:41:12.970Z,11.70
2018-04-13T05:43:41.551Z,11.70
2018-04-13T05:46:10.851Z,11.70
2018-04-13T05:48:39.673Z,11.70
2018-04-13T05:51:08.139Z,11.80
2018-04-13T05:53:36.700Z,11.80
2018-04-13T05:56:05.140Z,11.70
2018-04-13T05:58:33.663Z,11.80
2018-04-13T06:01:02.249Z,11.80
2018-04-13T06:03:30.932Z,11.80
2018-04-13T06:06:03.758Z,11.90
2018-04-13T06:08:32.502Z,11.90
2018-04-13T06:11:01.085Z,11.90
2018-04-13T06:13:29.536Z,12.00
2018-04-13T06:15:58.931Z,12.10
2018-04-13T06:18:27.444Z,12.10
2018-04-13T06:20:56.650Z,12.30
2018-04-13T06:23:25.035Z,12.30
2018-04-13T06:28:23.682Z,12.60
2018-04-13T06:30:50.438Z,12.70
2018-04-13T06:33:17.382Z,12.80
2018-04-13T06:35:44.029Z,12.90
2018-04-13T06:38:10.863Z,13.00
2018-04-13T06:40:37.806Z,13.10
2018-04-13T06:43:04.518Z,13.30
2018-04-13T06:45:32.415Z,13.60
2018-04-13T06:47:59.256Z,13.60
2018-04-13T06:50:25.996Z,13.70
2018-04-13T06:52:52.689Z,13.80
2018-04-13T06:55:19.579Z,13.90
2018-04-13T06:57:46.524Z,14.00
2018-04-13T07:00:13.360Z,14.00
2018-04-13T07:02:40.310Z,14.10
2018-04-13T07:05:07.000Z,14.10
2018-04-13T07:07:33.786Z,14.10
2018-04-13T07:10:00.534Z,14.00
2018-04-13T07:12:27.266Z,14.00
2018-04-13T07:14:54.111Z,14.00
2018-04-13T07:17:21.056Z,14.00
2018-04-13T07:19:47.723Z,14.00
2018-04-13T07:22:14.639Z,14.00
2018-04-13T07:24:41.585Z,14.00
2018-04-13T07:27:08.426Z,14.00
2018-04-13T07:29:35.267Z,14.00
2018-04-13T07:32:02.216Z,14.00
2018-04-13T07:34:29.037Z,14.00
2018-04-13T07:36:55.898Z,14.10
2018-04-13T07:39:22.666Z,14.10
2018-04-13T07:41:49.493Z,14.20
2018-04-13T07:44:16.628Z,14.30
2018-04-13T07:46:43.573Z,14.40
2018-04-13T07:49:10.278Z,14.50
2018-04-13T07:51:38.251Z,14.60
2018-04-13T07:54:04.713Z,14.60
2018-04-13T07:56:31.451Z,14.70
2018-04-13T07:58:58.098Z,14.70
2018-04-13T08:01:24.949Z,14.80
2018-04-13T08:03:51.781Z,14.80
2018-04-13T08:06:18.620Z,14.90
2018-04-13T08:08:45.667Z,15.00
2018-04-13T08:11:12.294Z,15.00
2018-04-13T08:13:39.045Z,15.10
2018-04-13T08:16:05.883Z,15.20
2018-04-13T08:18:32.729Z,15.30
2018-04-13T08:20:59.673Z,15.40
2018-04-13T08:23:26.414Z,15.40
2018-04-13T08:25:53.253Z,15.50
2018-04-13T08:28:20.095Z,15.40
2018-04-13T08:30:47.043Z,15.40
2018-04-13T08:33:14.621Z,15.50
2018-04-13T08:35:41.476Z,15.50
2018-04-13T08:38:09.127Z,15.50
2018-04-13T08:40:35.845Z,15.50
2018-04-13T08:43:02.549Z,15.40
2018-04-13T08:45:30.143Z,15.40
2018-04-13T08:47:57.191Z,15.40
2018-04-13T08:50:23.936Z,15.40
2018-04-13T08:52:50.610Z,15.30
2018-04-13T08:55:17.381Z,15.20
2018-04-13T08:57:44.781Z,15.40
2018-04-13T09:00:11.711Z,15.40
2018-04-13T09:02:38.552Z,15.40
2018-04-13T09:05:05.242Z,15.50
2018-04-13T09:07:32.029Z,15.60
2018-04-13T09:09:58.772Z,15.70
2018-04-13T09:12:25.449Z,15.70
2018-04-13T09:14:52.147Z,15.70
2018-04-13T09:17:19.009Z,15.70
2018-04-13T09:19:45.666Z,15.80
2018-04-13T09:22:12.367Z,15.80
2018-04-13T09:24:39.212Z,15.80
2018-04-13T09:27:05.866Z,15.90
2018-04-13T09:29:32.687Z,16.00
2018-04-13T09:31:59.428Z,16.00
2018-04-13T09:34:26.095Z,15.90
2018-04-13T09:36:52.910Z,16.00
2018-04-13T09:39:19.647Z,16.00
2018-04-13T09:41:46.495Z,16.00
2018-04-13T09:44:13.540Z,16.10
2018-04-13T09:46:40.587Z,16.20
2018-04-13T09:49:07.426Z,16.30
2018-04-13T09:51:34.370Z,16.40
2018-04-13T09:54:01.217Z,16.40
2018-04-13T09:56:27.957Z,16.50
2018-04-13T09:58:54.902Z,16.50
2018-04-13T10:01:21.559Z,16.30
2018-04-13T10:03:49.506Z,16.30
2018-04-13T10:06:16.349Z,16.20
2018-04-13T10:08:43.190Z,16.10
2018-04-13T10:11:10.032Z,15.90
2018-04-13T10:13:36.774Z,15.90
2018-04-13T10:16:03.614Z,15.80
2018-04-13T10:18:30.274Z,15.80
2018-04-13T10:20:57.173Z,15.70
2018-04-13T10:23:24.547Z,15.60
2018-04-13T10:25:51.291Z,15.60
2018-04-13T10:28:18.135Z,15.60
2018-04-13T10:30:44.872Z,15.60
2018-04-13T10:33:11.821Z,15.60
2018-04-13T10:35:38.639Z,15.60
2018-04-13T10:38:06.222Z,15.50
2018-04-13T10:40:33.064Z,15.50
2018-04-13T10:42:59.906Z,15.50
2018-04-13T10:45:26.645Z,15.50
2018-04-13T10:47:53.391Z,15.30
2018-04-13T10:50:20.333Z,15.20
2018-04-13T10:52:46.979Z,15.10
2018-04-13T10:55:13.637Z,15.00
2018-04-13T10:57:40.447Z,14.90
2018-04-13T11:00:07.188Z,14.80
2018-04-13T11:02:34.032Z,14.70
2018-04-13T11:05:00.771Z,14.60
2018-04-13T11:07:27.417Z,14.50
2018-04-13T11:09:54.244Z,14.40
2018-04-13T11:12:20.889Z,14.40
2018-04-13T11:14:47.623Z,14.30
2018-04-13T11:17:14.981Z,14.30
2018-04-13T11:19:41.927Z,14.30
2018-04-13T11:22:08.570Z,14.20
2018-04-13T11:24:35.405Z,14.20
2018-04-13T11:27:02.350Z,14.20
2018-04-13T11:29:29.086Z,14.10
2018-04-13T11:31:55.735Z,14.20
2018-04-13T11:34:22.566Z,14.20
2018-04-13T11:36:49.412Z,14.20
2018-04-13T11:39:16.253Z,14.20
2018-04-13T11:41:42.994Z,14.20
2018-04-13T11:44:10.143Z,14.20
2018-04-13T11:46:37.087Z,14.20
2018-04-13T11:49:03.929Z,14.20
2018-04-13T11:51:30.772Z,14.10
2018-04-13T11:53:57.511Z,14.20
2018-04-13T11:56:24.172Z,14.10
2018-04-13T11:58:50.890Z,14.10
2018-04-13T12:01:18.754Z,14.00
2018-04-13T12:03:45.597Z,14.00
2018-04-13T12:06:12.338Z,14.00
2018-04-13T12:08:39.278Z,14.00
2018-04-13T12:11:05.938Z,14.00
2018-04-13T12:13:32.582Z,14.00
2018-04-13T12:15:59.290Z,13.90
2018-04-13T12:18:25.991Z,13.90
2018-04-13T12:20:52.749Z,13.80
2018-04-13T12:23:19.610Z,13.80
2018-04-13T12:25:46.381Z,13.80
2018-04-13T12:28:13.039Z,13.80
2018-04-13T12:30:39.795Z,13.80
2018-04-13T12:33:06.504Z,13.80
2018-04-13T12:35:33.188Z,13.80
2018-04-13T12:38:00.778Z,13.80
2018-04-13T12:40:27.930Z,13.80
2018-04-13T12:42:54.662Z,13.70
2018-04-13T12:45:21.614Z,13.70
2018-04-13T12:47:48.782Z,13.70
2018-04-13T12:50:15.432Z,13.70
2018-04-13T12:52:43.776Z,13.80
2018-04-13T12:55:10.825Z,13.80
2018-04-13T12:57:37.461Z,13.80
2018-04-13T13:00:04.166Z,13.80
2018-04-13T13:02:30.936Z,13.90
2018-04-13T13:04:58.194Z,13.80
2018-04-13T13:07:24.853Z,13.80
2018-04-13T13:09:51.672Z,13.80
2018-04-13T13:12:19.129Z,13.90
2018-04-13T13:14:45.806Z,13.90
2018-04-13T13:17:12.610Z,13.90
2018-04-13T13:19:39.556Z,13.90
2018-04-13T13:22:06.396Z,13.90
2018-04-13T13:24:33.340Z,13.90
2018-04-13T13:27:00.081Z,13.90
2018-04-13T13:29:26.924Z,13.90
2018-04-13T13:31:53.594Z,13.90
2018-04-13T13:34:20.509Z,13.90
2018-04-13T13:36:47.627Z,13.90
2018-04-13T13:39:15.003Z,13.90
2018-04-13T13:41:41.851Z,13.90
2018-04-13T13:44:08.896Z,13.80
2018-04-13T13:46:35.741Z,13.80
2018-04-13T13:49:02.458Z,13.80
2018-04-13T13:51:29.224Z,13.90
2018-04-13T13:53:56.166Z,13.90
2018-04-13T13:56:23.007Z,13.90
2018-04-13T13:58:49.637Z,13.90
2018-04-13T14:01:16.488Z,13.80
2018-04-13T14:03:43.435Z,13.80
2018-04-13T14:06:10.275Z,13.80
2018-04-13T14:08:37.117Z,13.70
2018-04-13T14:11:03.968Z,13.70
2018-04-13T14:13:30.801Z,13.70
2018-04-13T14:15:57.614Z,13.70
2018-04-13T14:18:25.202Z,13.60
2018-04-13T14:20:51.888Z,13.60
2018-04-13T14:23:18.688Z,13.60
2018-04-13T14:25:45.346Z,13.60
2018-04-13T14:28:12.163Z,13.50
2018-04-13T14:30:39.001Z,13.50
2018-04-13T14:33:05.742Z,13.50
2018-04-13T14:35:32.413Z,13.50
2018-04-13T14:37:59.224Z,13.40
2018-04-13T14:40:26.069Z,13.40
2018-04-13T14:42:52.801Z,13.30
2018-04-13T14:45:19.444Z,13.30
2018-04-13T14:47:46.175Z,13.30
2018-04-13T14:50:13.128Z,13.20
2018-04-13T14:52:40.073Z,13.20
2018-04-13T14:55:06.813Z,13.20
2018-04-13T14:57:33.549Z,13.20
2018-04-13T15:00:00.802Z,13.20
2018-04-13T15:02:27.647Z,13.20
2018-04-13T15:04:54.307Z,13.20
2018-04-13T15:07:21.026Z,13.20
2018-04-13T15:09:47.626Z,13.20
2018-04-13T15:12:15.124Z,13.20
2018-04-13T15:14:41.960Z,13.20
2018-04-13T15:17:08.659Z,13.20
2018-04-13T15:19:35.338Z,13.10
2018-04-13T15:22:02.181Z,13.10
2018-04-13T15:24:28.917Z,13.10
2018-04-13T15:26:55.573Z,13.00
2018-04-13T15:29:22.295Z,13.00
2018-04-13T15:31:49.141Z,13.00
2018-04-13T15:34:15.980Z,13.00
2018-04-13T15:36:42.659Z,13.00
2018-04-13T15:39:09.360Z,13.00
2018-04-13T15:41:35.948Z,12.90
2018-04-13T15:44:02.631Z,13.00
2018-04-13T15:46:29.245Z,13.00
2018-04-13T15:48:56.832Z,13.00
2018-04-13T15:51:23.572Z,13.00
2018-04-13T15:53:50.183Z,13.00
2018-04-13T15:56:17.871Z,12.90
2018-04-13T15:58:44.610Z,12.90
2018-04-13T16:01:11.234Z,12.90
2018-04-13T16:03:38.086Z,12.90
2018-04-13T16:06:04.831Z,12.90
2018-04-13T16:08:31.671Z,12.90
2018-04-13T16:10:58.413Z,12.80
2018-04-13T16:13:25.151Z,12.80
2018-04-13T16:15:52.298Z,12.80
2018-04-13T16:18:19.043Z,12.70
2018-04-13T16:20:45.777Z,12.70
2018-04-13T16:23:12.546Z,12.70
2018-04-13T16:25:39.261Z,12.70
2018-04-13T16:28:06.104Z,12.70
2018-04-13T16:30:32.948Z,12.60
2018-04-13T16:32:59.687Z,12.60
2018-04-13T16:35:26.733Z,12.60
2018-04-13T16:37:53.472Z,12.60
2018-04-13T16:40:20.213Z,12.50
2018-04-13T16:42:47.055Z,12.50
2018-04-13T16:45:13.898Z,12.50
2018-04-13T16:47:40.733Z,12.50
2018-04-13T16:50:07.516Z,12.50
2018-04-13T16:52:34.219Z,12.50
2018-04-13T16:55:01.164Z,12.50
2018-04-13T16:57:27.904Z,12.50
2018-04-13T16:59:54.485Z,12.40
2018-04-13T17:02:21.482Z,12.40
2018-04-13T17:04:48.226Z,12.40
2018-04-13T17:07:15.063Z,12.30
2018-04-13T17:09:41.909Z,12.30
2018-04-13T17:12:08.646Z,12.30
2018-04-13T17:14:35.696Z,12.30
2018-04-13T17:17:02.431Z,12.30
2018-04-13T17:19:29.059Z,12.30
2018-04-13T17:21:55.809Z,12.30
2018-04-13T17:24:22.553Z,12.20
2018-04-13T17:26:49.293Z,12.20
2018-04-13T17:29:16.147Z,12.20
2018-04-13T17:31:42.757Z,12.20
2018-04-13T17:34:09.512Z,12.20
2018-04-13T17:36:36.268Z,12.20
2018-04-13T17:39:03.090Z,12.20
2018-04-13T17:41:29.749Z,12.10
2018-04-13T17:43:57.145Z,12.10
2018-04-13T17:46:23.822Z,12.10
2018-04-13T17:48:50.515Z,12.10
2018-04-13T17:51:17.311Z,12.10
2018-04-13T17:53:44.042Z,12.10
2018-04-13T17:56:10.786Z,12.10
2018-04-13T17:58:37.746Z,12.10
2018-04-13T18:01:04.374Z,12.10
2018-04-13T18:03:31.108Z,12.10
2018-04-13T18:05:57.848Z,12.00
2018-04-13T18:08:24.437Z,12.10
2018-04-13T18:10:52.761Z,12.00
2018-04-13T18:13:19.911Z,12.10
2018-04-13T18:15:46.627Z,12.10
2018-04-13T18:18:13.387Z,12.10
2018-04-13T18:20:40.051Z,12.10
2018-04-13T18:23:07.586Z,12.10
2018-04-13T18:25:34.328Z,12.10
2018-04-13T18:28:01.272Z,12.10
2018-04-13T18:30:27.894Z,12.10
2018-04-13T18:32:54.752Z,12.10
2018-04-13T18:35:21.491Z,12.10
2018-04-13T18:37:48.234Z,12.10
2018-04-13T18:40:14.973Z,12.10
2018-04-13T18:42:41.602Z,12.10
2018-04-13T18:45:08.619Z,12.10
2018-04-13T18:47:35.498Z,12.10
2018-04-13T18:50:02.340Z,12.10
2018-04-13T18:52:29.594Z,12.10
2018-04-13T18:54:56.306Z,12.10
2018-04-13T18:57:23.074Z,12.10
2018-04-13T18:59:49.938Z,12.10
2018-04-13T19:02:16.858Z,12.10
2018-04-13T19:04:43.907Z,12.10
2018-04-13T19:07:10.765Z,12.10
2018-04-13T19:09:37.789Z,12.20
2018-04-13T19:12:04.536Z,12.20
2018-04-13T19:14:31.475Z,12.20
2018-04-13T19:16:58.219Z,12.20
2018-04-13T19:19:25.064Z,12.20
2018-04-13T19:21:52.014Z,12.20
2018-04-13T19:24:18.851Z,12.20
2018-04-13T19:26:45.693Z,12.20
2018-04-13T19:29:12.429Z,12.20
2018-04-13T19:31:46.136Z,12.20
2018-04-13T19:34:12.846Z,12.20
2018-04-13T19:36:39.509Z,12.20
2018-04-13T19:39:07.892Z,12.20
2018-04-13T19:41:34.493Z,12.20
2018-04-13T19:44:01.139Z,12.20
2018-04-13T19:46:27.905Z,12.20
2018-04-13T19:48:54.530Z,12.20
2018-04-13T19:51:21.242Z,12.20
2018-04-13T19:53:48.125Z,12.20
2018-04-13T19:56:14.865Z,12.10
2018-04-13T19:58:41.604Z,12.10
2018-04-13T20:01:08.345Z,12.10
2018-04-13T20:03:35.087Z,12.10
2018-04-13T20:06:01.926Z,12.10
2018-04-13T20:08:28.638Z,12.00
2018-04-13T20:10:55.407Z,12.10
2018-04-13T20:13:22.018Z,12.00
2018-04-13T20:15:48.780Z,12.00
2018-04-13T20:18:17.346Z,12.00
2018-04-13T20:20:44.017Z,12.00
2018-04-13T20:23:10.848Z,12.00
2018-04-13T20:25:37.582Z,12.00
2018-04-13T20:28:04.234Z,12.00
2018-04-13T20:30:31.473Z,12.00
2018-04-13T20:32:58.213Z,11.90
2018-04-13T20:35:24.793Z,11.90
2018-04-13T20:37:52.311Z,11.90
2018-04-13T20:40:19.154Z,11.90
2018-04-13T20:42:45.893Z,11.90
2018-04-13T20:45:12.679Z,11.80
2018-04-13T20:47:39.997Z,11.80
2018-04-13T20:50:06.649Z,11.80
2018-04-13T20:52:33.314Z,11.80
2018-04-13T20:55:00.105Z,11.80
2018-04-13T20:57:26.945Z,11.80
2018-04-13T20:59:53.788Z,11.80
2018-04-13T21:02:20.401Z,11.80
2018-04-13T21:04:47.060Z,11.80
2018-04-13T21:07:13.804Z,11.80
2018-04-13T21:09:40.543Z,11.80
2018-04-13T21:12:07.381Z,11.80
2018-04-13T21:14:34.126Z,11.80
2018-04-13T21:17:00.866Z,11.80
2018-04-13T21:19:27.810Z,11.80
2018-04-13T21:21:54.414Z,11.80
2018-04-13T21:24:21.469Z,11.90
2018-04-13T21:26:48.133Z,11.90
2018-04-13T21:29:14.975Z,11.80
2018-04-13T21:31:42.019Z,11.80
2018-04-13T21:34:08.734Z,11.80
2018-04-13T21:36:35.305Z,11.80
2018-04-13T21:39:02.447Z,11.80
2018-04-13T21:41:30.530Z,11.80
2018-04-13T21:43:57.362Z,11.80
2018-04-13T21:46:25.450Z,11.80
2018-04-13T21:48:52.274Z,11.80
2018-04-13T21:51:19.116Z,11.80
2018-04-13T21:53:45.954Z,11.80
2018-04-13T21:56:12.800Z,11.70
2018-04-13T21:58:39.537Z,11.80
2018-04-13T22:01:06.382Z,11.80
2018-04-13T22:03:33.225Z,11.80
2018-04-13T22:05:59.817Z,11.70
2018-04-13T22:08:26.601Z,11.70
2018-04-13T22:10:53.444Z,11.70
2018-04-13T22:13:29.298Z,11.70
2018-04-13T22:15:55.910Z,11.70
2018-04-13T22:18:23.080Z,11.70
2018-04-13T22:20:49.824Z,11.60
2018-04-13T22:23:16.562Z,11.60
2018-04-13T22:25:43.195Z,11.60
2018-04-13T22:28:09.798Z,11.50
2018-04-13T22:30:36.681Z,11.50
2018-04-13T22:33:03.421Z,11.40
2018-04-13T22:35:30.161Z,11.40
2018-04-13T22:37:56.902Z,11.30
2018-04-13T22:40:23.644Z,11.30
2018-04-13T22:42:50.382Z,11.20
2018-04-13T22:45:17.322Z,11.20
2018-04-13T22:47:44.067Z,11.20
2018-04-13T22:50:10.839Z,11.10
2018-04-13T22:52:37.519Z,11.10
2018-04-13T22:55:04.967Z,11.00
2018-04-13T22:57:33.037Z,11.00
2018-04-13T23:00:00.504Z,11.00
2018-04-13T23:02:27.180Z,10.90
2018-04-13T23:04:55.200Z,10.90
2018-04-13T23:07:22.902Z,10.90
2018-04-13T23:09:49.638Z,10.90
2018-04-13T23:12:16.588Z,10.90
2018-04-13T23:14:43.325Z,10.90
2018-04-13T23:17:10.170Z,10.90
2018-04-13T23:19:37.013Z,10.80
2018-04-13T23:22:03.746Z,10.80
2018-04-13T23:24:30.482Z,10.80
2018-04-13T23:26:57.331Z,10.80
2018-04-13T23:29:24.173Z,10.70
2018-04-13T23:31:50.841Z,10.70
2018-04-13T23:34:17.652Z,10.70
2018-04-13T23:36:44.322Z,10.70
2018-04-13T23:39:11.231Z,10.70
2018-04-13T23:41:38.179Z,10.70
2018-04-13T23:44:04.919Z,10.60
2018-04-13T23:46:32.069Z,10.60
2018-04-13T23:48:58.809Z,10.60
2018-04-13T23:51:25.550Z,10.60
2018-04-13T23:53:52.287Z,10.50
2018-04-13T23:56:19.233Z,10.50
2018-04-13T23:58:46.077Z,10.50
